createdAt,value
2019-05-26T00:01:13.640Z,94.92
2019-05-26T00:03:41.886Z,94.76
2019-05-26T00:06:10.073Z,95.21
2019-05-26T00:08:41.895Z,95.28
2019-05-26T00:11:12.742Z,94.85
2019-05-26T00:13:40.909Z,94.74
2019-05-26T00:16:09.580Z,94.08
2019-05-26T00:18:38.381Z,94.00
2019-05-26T00:21:06.945Z,94.49
2019-05-26T00:23:35.551Z,94.47
2019-05-26T00:26:04.322Z,94.21
2019-05-26T00:28:35.362Z,94.45
2019-05-26T00:31:04.165Z,94.48
2019-05-26T00:33:32.709Z,93.17
2019-05-26T00:36:03.290Z,92.88
2019-05-26T00:38:31.751Z,93.00
2019-05-26T00:40:59.947Z,93.59
2019-05-26T00:43:27.861Z,94.19
2019-05-26T00:45:57.098Z,94.80
2019-05-26T00:48:24.996Z,95.13
2019-05-26T00:50:54.346Z,94.57
2019-05-26T00:53:22.738Z,94.40
2019-05-26T00:55:50.439Z,93.69
2019-05-26T00:58:18.951Z,94.07
2019-05-26T01:00:47.522Z,94.61
2019-05-26T01:03:16.223Z,94.72
2019-05-26T01:05:44.355Z,93.77
2019-05-26T01:08:12.843Z,93.96
2019-05-26T01:10:41.162Z,94.33
2019-05-26T01:13:12.534Z,94.97
2019-05-26T01:15:40.839Z,95.19
2019-05-26T01:18:08.673Z,95.30
2019-05-26T01:20:36.178Z,94.98
2019-05-26T01:23:04.484Z,95.72
2019-05-26T01:25:32.795Z,96.00
2019-05-26T01:28:00.620Z,96.32
2019-05-26T01:30:35.809Z,96.25
2019-05-26T01:33:04.494Z,96.50
2019-05-26T01:35:33.105Z,96.65
2019-05-26T01:38:01.384Z,96.73
2019-05-26T01:40:39.779Z,96.17
2019-05-26T01:43:08.287Z,96.00
2019-05-26T01:45:36.452Z,96.21
2019-05-26T01:48:05.178Z,96.42
2019-05-26T01:50:33.340Z,95.52
2019-05-26T01:53:01.189Z,95.44
2019-05-26T01:55:28.672Z,95.43
2019-05-26T01:57:56.943Z,95.35
2019-05-26T02:00:25.529Z,95.20
2019-05-26T02:02:53.727Z,94.75
2019-05-26T02:05:22.199Z,93.94
2019-05-26T02:07:52.026Z,93.76
2019-05-26T02:10:20.543Z,93.91
2019-05-26T02:12:48.544Z,94.38
2019-05-26T02:15:17.310Z,95.21
2019-05-26T02:17:46.957Z,95.55
2019-05-26T02:20:14.985Z,95.62
2019-05-26T02:22:42.857Z,95.11
2019-05-26T02:25:11.373Z,95.17
2019-05-26T02:27:39.913Z,94.91
2019-05-26T02:30:08.327Z,95.41
2019-05-26T02:32:38.709Z,95.69
2019-05-26T02:35:06.998Z,95.74
2019-05-26T02:37:35.252Z,96.06
2019-05-26T02:40:02.864Z,96.09
2019-05-26T02:42:31.065Z,96.30
2019-05-26T02:44:59.523Z,96.34
2019-05-26T02:47:28.334Z,96.24
2019-05-26T02:49:57.030Z,96.29
2019-05-26T02:52:27.037Z,95.81
2019-05-26T02:54:55.204Z,95.50
2019-05-26T02:57:23.710Z,95.80
2019-05-26T02:59:51.932Z,96.01
2019-05-26T03:02:21.410Z,96.19
2019-05-26T03:04:49.988Z,95.93
2019-05-26T03:07:18.669Z,95.84
2019-05-26T03:09:47.820Z,95.85
2019-05-26T03:12:18.324Z,95.86
2019-05-26T03:14:47.616Z,95.77
2019-05-26T03:17:17.032Z,95.75
2019-05-26T03:19:46.259Z,95.86
2019-05-26T03:22:16.716Z,95.94
2019-05-26T03:24:46.873Z,96.01
2019-05-26T03:27:15.389Z,96.19
2019-05-26T03:29:46.248Z,96.21
2019-05-26T03:32:16.636Z,95.97
2019-05-26T03:34:44.896Z,95.86
2019-05-26T03:37:12.799Z,95.72
2019-05-26T03:39:46.170Z,95.62
2019-05-26T03:42:14.054Z,95.30
2019-05-26T03:44:42.215Z,94.57
2019-05-26T03:47:09.723Z,94.66
2019-05-26T03:49:39.109Z,94.36
2019-05-26T03:52:07.316Z,93.29
2019-05-26T03:54:35.670Z,92.83
2019-05-26T03:57:05.893Z,93.21
2019-05-26T03:59:34.804Z,93.47
2019-05-26T04:02:03.304Z,93.92
2019-05-26T04:04:31.523Z,93.63
2019-05-26T04:06:59.741Z,93.68
2019-05-26T04:09:28.460Z,93.94
2019-05-26T04:11:59.434Z,94.38
2019-05-26T04:14:27.912Z,94.70
2019-05-26T04:16:58.520Z,94.66
2019-05-26T04:19:29.050Z,94.70
2019-05-26T04:21:56.980Z,93.86
2019-05-26T04:24:25.209Z,93.85
2019-05-26T04:26:53.580Z,94.02
2019-05-26T04:29:22.268Z,93.39
2019-05-26T04:31:50.490Z,93.54
2019-05-26T04:34:19.049Z,93.23
2019-05-26T04:36:46.940Z,92.78
2019-05-26T04:39:17.598Z,93.25
2019-05-26T04:41:46.235Z,92.97
2019-05-26T04:44:17.368Z,93.11
2019-05-26T04:46:46.272Z,93.54
2019-05-26T04:49:14.878Z,93.83
2019-05-26T04:51:43.180Z,94.00
2019-05-26T04:54:11.475Z,94.15
2019-05-26T04:56:39.700Z,94.61
2019-05-26T04:59:08.311Z,94.95
2019-05-26T05:01:39.045Z,95.08
2019-05-26T05:04:07.643Z,94.67
2019-05-26T05:06:35.565Z,94.78
2019-05-26T05:09:06.435Z,95.01
2019-05-26T05:11:34.895Z,95.22
2019-05-26T05:14:03.220Z,95.41
2019-05-26T05:16:31.381Z,95.57
2019-05-26T05:18:59.990Z,95.82
2019-05-26T05:21:28.363Z,96.04
2019-05-26T05:23:56.646Z,95.99
2019-05-26T05:26:24.608Z,95.71
2019-05-26T05:28:52.670Z,94.90
2019-05-26T05:31:21.293Z,94.85
2019-05-26T05:33:49.815Z,94.74
2019-05-26T05:36:18.325Z,94.52
2019-05-26T05:38:46.956Z,94.71
2019-05-26T05:41:14.981Z,94.86
2019-05-26T05:43:43.878Z,95.21
2019-05-26T05:46:12.525Z,95.35
2019-05-26T05:48:40.625Z,95.46
2019-05-26T05:51:09.123Z,95.68
2019-05-26T05:53:37.464Z,95.89
2019-05-26T05:56:05.259Z,95.92
2019-05-26T05:58:33.429Z,96.10
2019-05-26T06:01:01.599Z,96.21
2019-05-26T06:03:29.878Z,96.25
2019-05-26T06:05:58.150Z,96.15
2019-05-26T06:08:28.128Z,96.14
2019-05-26T06:10:56.678Z,96.20
2019-05-26T06:13:25.362Z,96.15
2019-05-26T06:15:53.333Z,96.05
2019-05-26T06:18:21.542Z,95.94
2019-05-26T06:20:49.783Z,95.74
2019-05-26T06:23:17.932Z,95.39
2019-05-26T06:25:46.556Z,95.19
2019-05-26T06:28:15.096Z,95.06
2019-05-26T06:30:43.554Z,94.91
2019-05-26T06:33:11.409Z,94.84
2019-05-26T06:35:40.002Z,94.33
2019-05-26T06:38:08.309Z,93.75
2019-05-26T06:40:36.288Z,93.47
2019-05-26T06:43:04.853Z,92.52
2019-05-26T06:45:33.143Z,91.17
2019-05-26T06:48:01.740Z,91.30
2019-05-26T06:50:29.600Z,91.24
2019-05-26T06:52:56.834Z,90.37
2019-05-26T06:55:25.139Z,90.34
2019-05-26T06:57:53.415Z,88.73
2019-05-26T07:00:21.629Z,88.42
2019-05-26T07:02:49.444Z,87.57
2019-05-26T07:05:18.555Z,85.20
2019-05-26T07:07:47.016Z,84.90
2019-05-26T07:10:16.044Z,84.64
2019-05-26T07:12:44.093Z,84.14
2019-05-26T07:15:12.932Z,83.70
2019-05-26T07:17:42.533Z,80.62
2019-05-26T07:20:11.079Z,80.43
2019-05-26T07:22:39.504Z,80.37
2019-05-26T07:25:11.080Z,80.44
2019-05-26T07:27:39.366Z,75.52
2019-05-26T07:30:11.853Z,75.52
2019-05-26T07:32:40.362Z,75.22
2019-05-26T07:35:08.558Z,74.18
2019-05-26T07:37:39.580Z,75.25
2019-05-26T07:40:08.063Z,76.10
2019-05-26T07:42:36.712Z,76.20
2019-05-26T07:45:05.500Z,74.93
2019-05-26T07:47:33.685Z,74.48
2019-05-26T07:50:02.062Z,72.42
2019-05-26T07:52:30.150Z,76.37
2019-05-26T07:54:58.350Z,76.00
2019-05-26T07:57:26.868Z,80.65
2019-05-26T07:59:55.107Z,78.82
2019-05-26T08:02:23.605Z,78.34
2019-05-26T08:04:51.846Z,79.55
2019-05-26T08:07:23.028Z,78.36
2019-05-26T08:09:50.281Z,76.67
2019-05-26T08:12:27.053Z,79.18
2019-05-26T08:14:49.725Z,78.49
2019-05-26T08:17:20.774Z,77.07
2019-05-26T08:19:50.715Z,75.59
2019-05-26T08:22:18.816Z,77.56
2019-05-26T08:24:47.466Z,75.09
2019-05-26T08:27:17.311Z,72.47
2019-05-26T08:29:47.304Z,75.15
2019-05-26T08:32:15.469Z,70.71
2019-05-26T08:34:44.047Z,70.61
2019-05-26T08:37:12.639Z,71.95
2019-05-26T08:39:42.815Z,73.50
2019-05-26T08:42:24.597Z,71.30
2019-05-26T08:44:41.681Z,71.57
2019-05-26T08:47:09.956Z,69.98
2019-05-26T08:49:39.778Z,68.85
2019-05-26T08:52:08.275Z,70.79
2019-05-26T08:54:39.374Z,70.65
2019-05-26T08:57:07.924Z,71.58
2019-05-26T08:59:36.330Z,71.88
2019-05-26T09:02:05.766Z,74.69
2019-05-26T09:04:35.936Z,70.10
2019-05-26T09:07:06.155Z,70.77
2019-05-26T09:09:34.411Z,71.77
2019-05-26T09:12:04.483Z,72.52
2019-05-26T09:14:32.958Z,67.75
2019-05-26T09:17:03.199Z,67.14
2019-05-26T09:19:31.851Z,68.93
2019-05-26T09:22:00.057Z,72.82
2019-05-26T09:24:28.654Z,66.71
2019-05-26T09:26:57.033Z,65.04
2019-05-26T09:29:25.213Z,63.77
2019-05-26T09:31:53.168Z,60.11
2019-05-26T09:34:21.168Z,62.45
2019-05-26T09:36:49.013Z,61.79
2019-05-26T09:39:17.777Z,63.47
2019-05-26T09:41:46.018Z,64.76
2019-05-26T09:44:13.860Z,60.46
2019-05-26T09:46:44.540Z,65.73
2019-05-26T09:49:12.791Z,65.98
2019-05-26T09:51:41.056Z,58.94
2019-05-26T09:54:12.803Z,65.91
2019-05-26T09:56:40.174Z,65.91
2019-05-26T09:59:08.351Z,63.90
2019-05-26T10:01:35.918Z,61.94
2019-05-26T10:04:04.641Z,62.53
2019-05-26T10:06:33.215Z,63.56
2019-05-26T10:09:01.810Z,63.56
2019-05-26T10:11:31.271Z,60.40
2019-05-26T10:13:59.743Z,60.40
2019-05-26T10:16:30.451Z,55.78
2019-05-26T10:18:57.988Z,56.74
2019-05-26T10:21:26.585Z,56.46
2019-05-26T10:23:54.832Z,56.46
2019-05-26T10:26:26.271Z,51.59
2019-05-26T10:28:54.135Z,51.04
2019-05-26T10:31:22.675Z,49.76
2019-05-26T10:33:51.830Z,44.93
2019-05-26T10:36:22.840Z,45.65
2019-05-26T10:38:51.507Z,43.62
2019-05-26T10:41:19.700Z,45.50
2019-05-26T10:43:48.005Z,52.27
2019-05-26T10:46:18.306Z,51.62
2019-05-26T10:48:46.891Z,50.05
2019-05-26T10:51:15.480Z,51.71
2019-05-26T10:53:44.115Z,53.30
2019-05-26T10:56:11.421Z,54.98
2019-05-26T10:58:42.466Z,49.94
2019-05-26T11:01:13.037Z,53.42
2019-05-26T11:03:43.215Z,56.41
2019-05-26T11:06:10.690Z,58.44
2019-05-26T11:08:39.297Z,54.74
2019-05-26T11:11:07.674Z,46.48
2019-05-26T11:13:41.001Z,43.75
2019-05-26T11:16:08.841Z,43.71
2019-05-26T11:18:37.429Z,46.37
2019-05-26T11:21:05.699Z,49.48
2019-05-26T11:23:33.897Z,49.06
2019-05-26T11:26:02.471Z,48.90
2019-05-26T11:28:32.349Z,47.19
2019-05-26T11:31:00.265Z,45.78
2019-05-26T11:33:28.850Z,42.85
2019-05-26T11:35:59.036Z,41.53
2019-05-26T11:38:27.781Z,43.30
2019-05-26T11:40:58.362Z,42.49
2019-05-26T11:43:26.594Z,43.68
2019-05-26T11:45:54.911Z,44.67
2019-05-26T11:48:22.711Z,46.37
2019-05-26T11:50:53.682Z,48.42
2019-05-26T11:53:22.202Z,41.97
2019-05-26T11:55:50.470Z,48.63
2019-05-26T11:58:19.092Z,43.93
2019-05-26T12:00:47.639Z,43.52
2019-05-26T12:03:15.833Z,44.35
2019-05-26T12:05:44.179Z,44.05
2019-05-26T12:08:12.473Z,41.76
2019-05-26T12:10:41.255Z,42.24
2019-05-26T12:13:11.991Z,42.17
2019-05-26T12:15:40.281Z,40.81
2019-05-26T12:18:08.320Z,42.75
2019-05-26T12:20:38.917Z,42.33
2019-05-26T12:23:08.018Z,42.49
2019-05-26T12:25:38.505Z,43.27
2019-05-26T12:28:07.665Z,44.87
2019-05-26T12:30:37.697Z,44.78
2019-05-26T12:33:07.857Z,43.77
2019-05-26T12:35:46.677Z,48.02
2019-05-26T12:38:15.104Z,43.40
2019-05-26T12:40:43.316Z,43.84
2019-05-26T12:43:11.380Z,49.45
2019-05-26T12:45:39.750Z,52.88
2019-05-26T12:48:08.112Z,50.59
2019-05-26T12:50:36.031Z,46.06
2019-05-26T12:53:04.456Z,49.49
2019-05-26T12:55:32.667Z,51.18
2019-05-26T12:58:01.011Z,51.48
2019-05-26T13:00:45.273Z,51.31
2019-05-26T13:02:59.655Z,52.50
2019-05-26T13:05:27.702Z,52.12
2019-05-26T13:07:56.331Z,50.49
2019-05-26T13:10:24.426Z,48.72
2019-05-26T13:12:52.595Z,50.13
2019-05-26T13:15:20.974Z,47.27
2019-05-26T13:17:49.590Z,47.78
2019-05-26T13:20:17.867Z,48.19
2019-05-26T13:22:46.121Z,43.20
2019-05-26T13:25:16.248Z,39.93
2019-05-26T13:27:44.140Z,39.07
2019-05-26T13:30:14.967Z,42.61
2019-05-26T13:32:43.161Z,40.18
2019-05-26T13:35:11.722Z,40.01
2019-05-26T13:37:40.316Z,39.16
2019-05-26T13:40:09.344Z,40.70
2019-05-26T13:42:37.245Z,40.19
2019-05-26T13:45:21.014Z,39.70
2019-05-26T13:47:36.376Z,42.08
2019-05-26T13:50:05.678Z,40.30
2019-05-26T13:52:34.213Z,42.46
2019-05-26T13:55:04.786Z,41.05
2019-05-26T13:57:33.025Z,35.11
2019-05-26T14:00:03.373Z,34.97
2019-05-26T14:02:31.949Z,37.11
2019-05-26T14:05:00.525Z,38.92
2019-05-26T14:07:29.152Z,40.78
2019-05-26T14:09:57.898Z,42.58
2019-05-26T14:12:26.494Z,38.57
2019-05-26T14:14:56.409Z,35.67
2019-05-26T14:17:33.481Z,38.02
2019-05-26T14:20:03.934Z,42.98
2019-05-26T14:22:33.785Z,42.90
2019-05-26T14:25:01.955Z,44.61
2019-05-26T14:27:30.305Z,42.39
2019-05-26T14:29:58.611Z,42.26
2019-05-26T14:32:26.966Z,42.97
2019-05-26T14:34:55.004Z,42.94
2019-05-26T14:37:23.654Z,43.38
2019-05-26T14:39:52.241Z,44.96
2019-05-26T14:42:20.823Z,43.63
2019-05-26T14:44:49.406Z,42.81
2019-05-26T14:47:17.817Z,45.61
2019-05-26T14:49:46.109Z,45.48
2019-05-26T14:52:14.323Z,43.82
2019-05-26T14:54:43.066Z,38.02
2019-05-26T14:57:11.608Z,37.64
2019-05-26T14:59:40.246Z,36.88
2019-05-26T15:02:11.491Z,38.88
2019-05-26T15:04:39.637Z,46.44
2019-05-26T15:07:08.056Z,43.72
2019-05-26T15:09:37.644Z,43.66
2019-05-26T15:12:06.139Z,38.45
2019-05-26T15:14:34.917Z,36.04
2019-05-26T15:17:03.741Z,38.55
2019-05-26T15:19:31.702Z,42.47
2019-05-26T15:22:00.203Z,42.92
2019-05-26T15:24:28.515Z,46.12
2019-05-26T15:26:56.344Z,48.24
2019-05-26T15:29:25.004Z,46.40
2019-05-26T15:31:53.525Z,46.23
2019-05-26T15:34:22.127Z,50.34
2019-05-26T15:36:50.797Z,49.64
2019-05-26T15:39:19.206Z,51.34
2019-05-26T15:41:47.390Z,55.26
2019-05-26T15:44:15.723Z,53.26
2019-05-26T15:46:43.946Z,55.08
2019-05-26T15:49:12.643Z,54.10
2019-05-26T15:51:41.316Z,53.83
2019-05-26T15:54:09.271Z,51.06
2019-05-26T15:56:37.446Z,48.30
2019-05-26T15:59:06.057Z,52.01
2019-05-26T16:01:34.296Z,52.21
2019-05-26T16:04:04.452Z,55.36
2019-05-26T16:06:32.345Z,51.93
2019-05-26T16:09:00.942Z,51.49
2019-05-26T16:11:29.326Z,50.54
2019-05-26T16:13:57.575Z,49.58
2019-05-26T16:16:40.106Z,49.12
2019-05-26T16:18:56.807Z,48.99
2019-05-26T16:21:28.314Z,49.60
2019-05-26T16:23:55.852Z,50.34
2019-05-26T16:26:24.335Z,49.72
2019-05-26T16:28:52.844Z,52.95
2019-05-26T16:31:20.799Z,53.66
2019-05-26T16:33:48.971Z,53.93
2019-05-26T16:36:21.080Z,54.97
2019-05-26T16:38:48.298Z,55.29
2019-05-26T16:41:16.896Z,55.67
2019-05-26T16:43:45.194Z,48.70
2019-05-26T16:46:13.444Z,49.23
2019-05-26T16:48:41.732Z,52.40
2019-05-26T16:51:10.018Z,54.06
2019-05-26T16:53:38.112Z,50.33
2019-05-26T16:56:06.751Z,49.19
2019-05-26T16:58:34.675Z,50.23
2019-05-26T17:01:03.245Z,48.67
2019-05-26T17:03:31.126Z,48.67
2019-05-26T17:06:07.636Z,48.63
2019-05-26T17:08:28.820Z,48.67
2019-05-26T17:10:57.376Z,49.93
2019-05-26T17:13:25.223Z,50.13
2019-05-26T17:15:53.457Z,50.18
2019-05-26T17:18:21.842Z,50.47
2019-05-26T17:20:50.285Z,51.38
2019-05-26T17:23:18.882Z,51.15
2019-05-26T17:25:46.496Z,52.01
2019-05-26T17:28:14.347Z,53.24
2019-05-26T17:30:42.574Z,54.25
2019-05-26T17:33:10.812Z,52.59
2019-05-26T17:35:39.009Z,54.43
2019-05-26T17:38:07.395Z,54.43
2019-05-26T17:40:36.155Z,53.58
2019-05-26T17:43:04.776Z,55.04
2019-05-26T17:45:33.143Z,54.50
2019-05-26T17:48:01.411Z,55.63
2019-05-26T17:50:30.033Z,55.22
2019-05-26T17:52:59.383Z,58.88
2019-05-26T17:55:28.101Z,58.88
2019-05-26T17:57:56.316Z,57.83
2019-05-26T18:00:24.073Z,59.28
2019-05-26T18:02:52.359Z,59.05
2019-05-26T18:05:20.939Z,58.83
2019-05-26T18:07:49.564Z,57.17
2019-05-26T18:10:17.969Z,56.82
2019-05-26T18:12:46.280Z,57.63
2019-05-26T18:15:14.777Z,57.05
2019-05-26T18:17:47.493Z,57.05
2019-05-26T18:20:13.050Z,55.99
2019-05-26T18:22:41.338Z,56.55
2019-05-26T18:25:10.027Z,56.85
2019-05-26T18:27:38.841Z,57.39
2019-05-26T18:30:08.629Z,57.30
2019-05-26T18:32:37.018Z,57.25
2019-05-26T18:35:04.987Z,58.04
2019-05-26T18:37:33.215Z,58.74
2019-05-26T18:40:01.985Z,59.54
2019-05-26T18:42:30.250Z,60.81
2019-05-26T18:44:59.027Z,61.96
2019-05-26T18:47:26.847Z,62.86
2019-05-26T18:49:55.227Z,63.24
2019-05-26T18:52:23.492Z,65.14
2019-05-26T18:54:51.203Z,65.62
2019-05-26T18:57:19.713Z,65.63
2019-05-26T18:59:48.455Z,67.68
2019-05-26T19:02:17.263Z,66.07
2019-05-26T19:04:45.636Z,67.28
2019-05-26T19:07:14.236Z,66.77
2019-05-26T19:09:41.517Z,65.97
2019-05-26T19:12:10.308Z,66.99
2019-05-26T19:14:38.207Z,68.09
2019-05-26T19:17:08.291Z,68.13
2019-05-26T19:19:36.773Z,68.32
2019-05-26T19:22:05.436Z,69.13
2019-05-26T19:24:33.536Z,69.20
2019-05-26T19:27:01.326Z,69.54
2019-05-26T19:29:30.057Z,69.05
2019-05-26T19:31:57.936Z,69.91
2019-05-26T19:34:26.572Z,70.43
2019-05-26T19:36:55.216Z,70.52
2019-05-26T19:39:23.435Z,70.13
2019-05-26T19:41:51.523Z,70.20
2019-05-26T19:44:19.382Z,70.26
2019-05-26T19:46:47.953Z,70.55
2019-05-26T19:49:16.245Z,70.64
2019-05-26T19:51:44.510Z,71.60
2019-05-26T19:54:12.477Z,71.06
2019-05-26T19:56:41.165Z,70.91
2019-05-26T19:59:09.342Z,71.69
2019-05-26T20:01:37.237Z,72.93
2019-05-26T20:04:05.641Z,72.06
2019-05-26T20:06:34.838Z,74.26
2019-05-26T20:09:04.486Z,73.69
2019-05-26T20:11:33.246Z,73.48
2019-05-26T20:14:01.863Z,74.28
2019-05-26T20:16:31.031Z,74.53
2019-05-26T20:18:59.443Z,74.96
2019-05-26T20:21:28.061Z,75.30
2019-05-26T20:23:55.846Z,75.61
2019-05-26T20:26:24.509Z,75.90
2019-05-26T20:28:52.607Z,76.29
2019-05-26T20:31:20.624Z,76.97
2019-05-26T20:33:48.584Z,77.32
2019-05-26T20:36:17.974Z,77.92
2019-05-26T20:38:46.530Z,78.34
2019-05-26T20:41:15.792Z,78.77
2019-05-26T20:43:44.078Z,79.25
2019-05-26T20:46:14.086Z,78.77
2019-05-26T20:48:42.635Z,79.25
2019-05-26T20:51:14.168Z,79.04
2019-05-26T20:53:42.427Z,79.71
2019-05-26T20:56:13.162Z,79.25
2019-05-26T20:58:41.375Z,80.07
2019-05-26T21:01:09.732Z,79.99
2019-05-26T21:03:38.007Z,79.78
2019-05-26T21:06:06.198Z,80.31
2019-05-26T21:08:34.442Z,80.76
2019-05-26T21:11:02.829Z,80.89
2019-05-26T21:13:32.941Z,81.20
2019-05-26T21:16:01.167Z,81.94
2019-05-26T21:18:29.146Z,81.22
2019-05-26T21:20:57.002Z,81.54
2019-05-26T21:23:24.841Z,81.64
2019-05-26T21:25:53.378Z,81.91
2019-05-26T21:28:24.016Z,81.71
2019-05-26T21:30:52.509Z,81.87
2019-05-26T21:33:20.852Z,82.22
2019-05-26T21:35:49.371Z,82.24
2019-05-26T21:38:18.905Z,81.63
2019-05-26T21:40:46.515Z,82.19
2019-05-26T21:43:14.771Z,82.37
2019-05-26T21:45:44.363Z,82.62
2019-05-26T21:48:13.121Z,82.67
2019-05-26T21:50:41.876Z,82.96
2019-05-26T21:53:10.103Z,83.30
2019-05-26T21:55:37.783Z,83.06
2019-05-26T21:58:06.382Z,83.80
2019-05-26T22:00:40.021Z,84.37
2019-05-26T22:03:08.260Z,83.30
2019-05-26T22:05:37.431Z,83.27
2019-05-26T22:08:05.934Z,83.21
2019-05-26T22:10:35.579Z,83.56
2019-05-26T22:13:04.357Z,83.60
2019-05-26T22:15:33.881Z,84.41
2019-05-26T22:18:03.072Z,84.73
2019-05-26T22:20:31.935Z,84.06
2019-05-26T22:23:00.453Z,84.15
2019-05-26T22:25:29.051Z,85.93
2019-05-26T22:27:58.182Z,85.54
2019-05-26T22:30:27.947Z,85.21
2019-05-26T22:32:56.969Z,84.82
2019-05-26T22:35:24.862Z,84.41
2019-05-26T22:37:52.836Z,84.28
2019-05-26T22:40:22.419Z,83.21
2019-05-26T22:42:50.321Z,82.05
2019-05-26T22:45:18.286Z,81.92
2019-05-26T22:47:46.591Z,83.52
2019-05-26T22:50:15.322Z,84.18
2019-05-26T22:52:44.017Z,84.16
2019-05-26T22:55:11.690Z,84.19
2019-05-26T22:57:39.877Z,85.11
2019-05-26T23:00:09.397Z,85.14
2019-05-26T23:02:37.593Z,85.69
2019-05-26T23:05:06.403Z,85.98
2019-05-26T23:07:35.034Z,85.17
2019-05-26T23:10:03.848Z,85.16
2019-05-26T23:12:31.652Z,85.28
2019-05-26T23:14:59.427Z,85.02
2019-05-26T23:17:27.894Z,84.51
2019-05-26T23:19:56.042Z,84.07
2019-05-26T23:22:24.340Z,84.10
2019-05-26T23:24:52.839Z,85.12
2019-05-26T23:27:20.872Z,84.41
2019-05-26T23:29:48.754Z,84.21
2019-05-26T23:32:17.055Z,83.97
2019-05-26T23:34:45.635Z,84.27
2019-05-26T23:37:14.323Z,85.83
2019-05-26T23:39:42.777Z,85.91
2019-05-26T23:42:10.726Z,85.75
2019-05-26T23:44:38.753Z,85.96
2019-05-26T23:47:07.052Z,85.89
2019-05-26T23:49:35.622Z,86.02
2019-05-26T23:52:04.353Z,86.45
2019-05-26T23:54:32.638Z,87.19
2019-05-26T23:57:00.877Z,87.65
2019-05-26T23:59:29.475Z,87.52
